Terminal Aerodrome Forecast
Issued by NWS

Home | Current Version | Previous Version | Text Only | Print | Product List | Glossary On
Versions: 1 2 3 4 5 6 7 8 9 10 11 12 13 14 15 16 17 18 19 20
000
FTUS43 KBIS 281120
TAFMOT
TAF
KMOT 281120Z 2812/2912 29010KT P6SM FEW045 FEW200
     FM281400 29016G24KT P6SM FEW040 FEW200
     FM281800 31025G35KT P6SM VCSH SCT050 BKN090
     FM290100 33018G28KT P6SM SCT040 BKN070
     FM290700 32013KT P6SM SCT030 BKN040=

USA.gov is the U.S. government's official web portal to all federal, state and local government web resources and services.